sensor_id;sensor_type;location;lat;lon;timestamp;P1;durP1;ratioP1;P2;durP2;ratioP2
8213;SDS011;4148;47.974;7.824;2024-03-07T00:00:11;7.20;;;5.50;;
8213;SDS011;4148;47.974;7.824;2024-03-07T00:02:44;7.10;;;5.47;;
8213;SDS011;4148;47.974;7.824;2024-03-07T00:05:15;5.90;;;5.10;;
8213;SDS011;4148;47.974;7.824;2024-03-07T00:07:43;7.77;;;4.83;;
8213;SDS011;4148;47.974;7.824;2024-03-07T00:10:13;6.20;;;5.33;;
8213;SDS011;4148;47.974;7.824;2024-03-07T00:12:42;7.50;;;5.23;;
8213;SDS011;4148;47.974;7.824;2024-03-07T00:15:11;5.03;;;4.30;;
8213;SDS011;4148;47.974;7.824;2024-03-07T00:17:40;5.40;;;4.73;;
8213;SDS011;4148;47.974;7.824;2024-03-07T00:20:09;5.43;;;4.50;;
8213;SDS011;4148;47.974;7.824;2024-03-07T00:22:42;6.73;;;4.90;;
8213;SDS011;4148;47.974;7.824;2024-03-07T00:25:11;5.67;;;4.70;;
8213;SDS011;4148;47.974;7.824;2024-03-07T00:27:39;6.97;;;4.87;;
8213;SDS011;4148;47.974;7.824;2024-03-07T00:30:08;7.50;;;4.97;;
8213;SDS011;4148;47.974;7.824;2024-03-07T00:32:36;4.83;;;4.10;;
8213;SDS011;4148;47.974;7.824;2024-03-07T00:35:06;6.67;;;4.37;;
8213;SDS011;4148;47.974;7.824;2024-03-07T00:37:36;4.63;;;3.90;;
8213;SDS011;4148;47.974;7.824;2024-03-07T00:40:04;6.13;;;4.70;;
8213;SDS011;4148;47.974;7.824;2024-03-07T00:42:35;5.57;;;4.57;;
8213;SDS011;4148;47.974;7.824;2024-03-07T00:45:03;6.83;;;4.40;;
8213;SDS011;4148;47.974;7.824;2024-03-07T00:47:31;6.17;;;4.77;;
8213;SDS011;4148;47.974;7.824;2024-03-07T00:50:00;5.33;;;4.63;;
8213;SDS011;4148;47.974;7.824;2024-03-07T00:52:28;6.63;;;5.10;;
8213;SDS011;4148;47.974;7.824;2024-03-07T00:54:55;5.70;;;4.77;;
8213;SDS011;4148;47.974;7.824;2024-03-07T00:57:23;5.87;;;4.80;;
8213;SDS011;4148;47.974;7.824;2024-03-07T00:59:52;7.47;;;5.70;;
8213;SDS011;4148;47.974;7.824;2024-03-07T01:02:21;6.07;;;4.80;;
8213;SDS011;4148;47.974;7.824;2024-03-07T01:04:49;7.60;;;5.70;;
8213;SDS011;4148;47.974;7.824;2024-03-07T01:07:17;6.73;;;4.53;;
8213;SDS011;4148;47.974;7.824;2024-03-07T01:09:45;5.57;;;4.97;;
8213;SDS011;4148;47.974;7.824;2024-03-07T01:12:13;6.37;;;4.90;;
8213;SDS011;4148;47.974;7.824;2024-03-07T01:14:42;6.07;;;4.87;;
8213;SDS011;4148;47.974;7.824;2024-03-07T01:17:11;4.73;;;4.17;;
8213;SDS011;4148;47.974;7.824;2024-03-07T01:19:39;4.40;;;4.00;;
8213;SDS011;4148;47.974;7.824;2024-03-07T01:22:07;4.70;;;4.20;;
8213;SDS011;4148;47.974;7.824;2024-03-07T01:24:35;6.30;;;4.33;;
8213;SDS011;4148;47.974;7.824;2024-03-07T01:27:03;4.30;;;3.80;;
8213;SDS011;4148;47.974;7.824;2024-03-07T01:29:31;7.20;;;4.90;;
8213;SDS011;4148;47.974;7.824;2024-03-07T01:31:59;5.87;;;4.23;;
8213;SDS011;4148;47.974;7.824;2024-03-07T01:34:29;4.90;;;4.10;;
8213;SDS011;4148;47.974;7.824;2024-03-07T01:36:57;5.50;;;4.50;;
8213;SDS011;4148;47.974;7.824;2024-03-07T01:39:25;5.00;;;3.90;;
8213;SDS011;4148;47.974;7.824;2024-03-07T01:41:53;5.03;;;4.00;;
8213;SDS011;4148;47.974;7.824;2024-03-07T01:44:21;5.60;;;4.83;;
8213;SDS011;4148;47.974;7.824;2024-03-07T01:46:49;4.67;;;4.00;;
8213;SDS011;4148;47.974;7.824;2024-03-07T01:49:17;3.87;;;3.47;;
8213;SDS011;4148;47.974;7.824;2024-03-07T01:51:47;4.50;;;3.80;;
8213;SDS011;4148;47.974;7.824;2024-03-07T01:54:15;5.00;;;3.77;;
8213;SDS011;4148;47.974;7.824;2024-03-07T01:56:43;4.70;;;4.23;;
8213;SDS011;4148;47.974;7.824;2024-03-07T01:59:11;4.23;;;3.83;;
8213;SDS011;4148;47.974;7.824;2024-03-07T02:01:40;4.57;;;4.07;;
8213;SDS011;4148;47.974;7.824;2024-03-07T02:04:08;5.23;;;3.73;;
8213;SDS011;4148;47.974;7.824;2024-03-07T02:06:36;4.07;;;3.60;;
8213;SDS011;4148;47.974;7.824;2024-03-07T02:09:05;5.03;;;4.33;;
8213;SDS011;4148;47.974;7.824;2024-03-07T02:11:33;4.70;;;4.23;;
8213;SDS011;4148;47.974;7.824;2024-03-07T02:14:01;5.40;;;4.40;;
8213;SDS011;4148;47.974;7.824;2024-03-07T02:16:29;5.30;;;4.67;;
8213;SDS011;4148;47.974;7.824;2024-03-07T02:18:58;5.47;;;4.77;;
8213;SDS011;4148;47.974;7.824;2024-03-07T02:21:28;5.17;;;4.67;;
8213;SDS011;4148;47.974;7.824;2024-03-07T02:23:56;5.30;;;4.23;;
8213;SDS011;4148;47.974;7.824;2024-03-07T02:26:24;5.23;;;3.90;;
8213;SDS011;4148;47.974;7.824;2024-03-07T02:28:53;5.77;;;4.90;;
8213;SDS011;4148;47.974;7.824;2024-03-07T02:31:21;4.80;;;4.30;;
8213;SDS011;4148;47.974;7.824;2024-03-07T02:34:01;5.50;;;4.33;;
8213;SDS011;4148;47.974;7.824;2024-03-07T02:36:30;5.63;;;5.03;;
8213;SDS011;4148;47.974;7.824;2024-03-07T02:38:58;7.00;;;5.23;;
8213;SDS011;4148;47.974;7.824;2024-03-07T02:41:27;6.50;;;4.67;;
8213;SDS011;4148;47.974;7.824;2024-03-07T02:43:55;10.53;;;6.50;;
8213;SDS011;4148;47.974;7.824;2024-03-07T02:46:23;7.70;;;5.50;;
8213;SDS011;4148;47.974;7.824;2024-03-07T02:48:50;5.30;;;4.50;;
8213;SDS011;4148;47.974;7.824;2024-03-07T02:51:18;5.67;;;4.77;;
8213;SDS011;4148;47.974;7.824;2024-03-07T02:53:48;5.50;;;4.57;;
8213;SDS011;4148;47.974;7.824;2024-03-07T02:56:16;5.70;;;4.60;;
8213;SDS011;4148;47.974;7.824;2024-03-07T02:58:44;5.70;;;3.60;;
8213;SDS011;4148;47.974;7.824;2024-03-07T03:01:12;6.00;;;4.20;;
8213;SDS011;4148;47.974;7.824;2024-03-07T03:03:40;4.70;;;4.10;;
8213;SDS011;4148;47.974;7.824;2024-03-07T03:06:08;5.37;;;4.43;;
8213;SDS011;4148;47.974;7.824;2024-03-07T03:08:37;5.30;;;4.50;;
8213;SDS011;4148;47.974;7.824;2024-03-07T03:11:06;5.13;;;4.17;;
8213;SDS011;4148;47.974;7.824;2024-03-07T03:13:37;5.20;;;4.00;;
8213;SDS011;4148;47.974;7.824;2024-03-07T03:16:05;4.13;;;3.70;;
8213;SDS011;4148;47.974;7.824;2024-03-07T03:18:34;5.70;;;4.00;;
8213;SDS011;4148;47.974;7.824;2024-03-07T03:21:03;5.97;;;4.30;;
8213;SDS011;4148;47.974;7.824;2024-03-07T03:23:31;5.30;;;3.90;;
8213;SDS011;4148;47.974;7.824;2024-03-07T03:26:00;6.00;;;4.97;;
8213;SDS011;4148;47.974;7.824;2024-03-07T03:28:30;5.17;;;4.23;;
8213;SDS011;4148;47.974;7.824;2024-03-07T03:30:58;5.50;;;4.30;;
8213;SDS011;4148;47.974;7.824;2024-03-07T03:33:26;5.87;;;4.60;;
8213;SDS011;4148;47.974;7.824;2024-03-07T03:35:53;4.43;;;3.80;;
8213;SDS011;4148;47.974;7.824;2024-03-07T03:38:22;4.90;;;3.93;;
8213;SDS011;4148;47.974;7.824;2024-03-07T03:40:50;6.60;;;4.77;;
8213;SDS011;4148;47.974;7.824;2024-03-07T03:43:18;5.67;;;4.50;;
8213;SDS011;4148;47.974;7.824;2024-03-07T03:45:47;4.53;;;3.83;;
8213;SDS011;4148;47.974;7.824;2024-03-07T03:48:15;4.80;;;3.90;;
8213;SDS011;4148;47.974;7.824;2024-03-07T03:50:43;5.40;;;4.23;;
8213;SDS011;4148;47.974;7.824;2024-03-07T03:53:12;5.37;;;4.40;;
8213;SDS011;4148;47.974;7.824;2024-03-07T03:55:40;4.50;;;3.77;;
8213;SDS011;4148;47.974;7.824;2024-03-07T03:58:08;4.70;;;4.07;;
8213;SDS011;4148;47.974;7.824;2024-03-07T04:00:36;5.03;;;3.87;;
8213;SDS011;4148;47.974;7.824;2024-03-07T04:03:07;4.13;;;3.30;;
8213;SDS011;4148;47.974;7.824;2024-03-07T04:05:34;5.10;;;3.63;;
8213;SDS011;4148;47.974;7.824;2024-03-07T04:08:03;4.60;;;3.83;;
8213;SDS011;4148;47.974;7.824;2024-03-07T04:10:31;4.90;;;4.07;;
8213;SDS011;4148;47.974;7.824;2024-03-07T04:12:59;5.60;;;4.07;;
8213;SDS011;4148;47.974;7.824;2024-03-07T04:15:27;5.07;;;3.97;;
8213;SDS011;4148;47.974;7.824;2024-03-07T04:18:01;4.80;;;3.80;;
8213;SDS011;4148;47.974;7.824;2024-03-07T04:20:31;4.90;;;3.70;;
8213;SDS011;4148;47.974;7.824;2024-03-07T04:22:59;5.93;;;4.30;;
8213;SDS011;4148;47.974;7.824;2024-03-07T04:25:28;5.33;;;4.23;;
8213;SDS011;4148;47.974;7.824;2024-03-07T04:27:56;5.93;;;4.00;;
8213;SDS011;4148;47.974;7.824;2024-03-07T04:30:24;5.60;;;4.30;;
8213;SDS011;4148;47.974;7.824;2024-03-07T04:32:52;6.60;;;4.37;;
8213;SDS011;4148;47.974;7.824;2024-03-07T04:35:20;6.47;;;4.90;;
8213;SDS011;4148;47.974;7.824;2024-03-07T04:37:49;7.10;;;4.80;;
8213;SDS011;4148;47.974;7.824;2024-03-07T04:40:18;8.17;;;5.47;;
8213;SDS011;4148;47.974;7.824;2024-03-07T04:42:48;17.60;;;5.87;;
8213;SDS011;4148;47.974;7.824;2024-03-07T04:45:16;9.50;;;6.07;;
8213;SDS011;4148;47.974;7.824;2024-03-07T04:47:47;8.13;;;6.20;;
8213;SDS011;4148;47.974;7.824;2024-03-07T04:50:16;9.00;;;6.30;;
8213;SDS011;4148;47.974;7.824;2024-03-07T04:52:46;7.93;;;5.77;;
8213;SDS011;4148;47.974;7.824;2024-03-07T04:55:17;8.63;;;6.57;;
8213;SDS011;4148;47.974;7.824;2024-03-07T04:57:45;12.60;;;7.00;;
8213;SDS011;4148;47.974;7.824;2024-03-07T05:00:14;10.33;;;7.40;;
8213;SDS011;4148;47.974;7.824;2024-03-07T05:02:47;10.70;;;5.93;;
8213;SDS011;4148;47.974;7.824;2024-03-07T05:05:17;5.87;;;4.27;;
8213;SDS011;4148;47.974;7.824;2024-03-07T05:07:49;6.40;;;4.20;;
8213;SDS011;4148;47.974;7.824;2024-03-07T05:10:19;6.50;;;4.47;;
8213;SDS011;4148;47.974;7.824;2024-03-07T05:12:48;7.27;;;4.87;;
8213;SDS011;4148;47.974;7.824;2024-03-07T05:15:16;6.50;;;4.90;;
8213;SDS011;4148;47.974;7.824;2024-03-07T05:17:44;7.30;;;4.93;;
8213;SDS011;4148;47.974;7.824;2024-03-07T05:20:12;6.27;;;4.90;;
8213;SDS011;4148;47.974;7.824;2024-03-07T05:22:40;6.87;;;5.00;;
8213;SDS011;4148;47.974;7.824;2024-03-07T05:25:11;7.40;;;5.03;;
8213;SDS011;4148;47.974;7.824;2024-03-07T05:27:40;6.60;;;5.17;;
8213;SDS011;4148;47.974;7.824;2024-03-07T05:30:09;8.90;;;5.50;;
8213;SDS011;4148;47.974;7.824;2024-03-07T05:32:39;7.43;;;5.47;;
8213;SDS011;4148;47.974;7.824;2024-03-07T05:35:07;7.77;;;4.83;;
8213;SDS011;4148;47.974;7.824;2024-03-07T05:37:38;8.43;;;5.63;;
8213;SDS011;4148;47.974;7.824;2024-03-07T05:40:08;6.67;;;5.27;;
8213;SDS011;4148;47.974;7.824;2024-03-07T05:42:36;7.70;;;5.20;;
8213;SDS011;4148;47.974;7.824;2024-03-07T05:45:06;8.00;;;5.70;;
8213;SDS011;4148;47.974;7.824;2024-03-07T05:47:34;10.03;;;6.40;;
8213;SDS011;4148;47.974;7.824;2024-03-07T05:50:03;9.10;;;6.30;;
8213;SDS011;4148;47.974;7.824;2024-03-07T05:52:33;10.30;;;6.40;;
8213;SDS011;4148;47.974;7.824;2024-03-07T05:55:01;10.93;;;5.80;;
8213;SDS011;4148;47.974;7.824;2024-03-07T05:57:29;9.87;;;6.93;;
8213;SDS011;4148;47.974;7.824;2024-03-07T05:59:57;12.33;;;7.00;;
8213;SDS011;4148;47.974;7.824;2024-03-07T06:02:26;10.73;;;7.03;;
8213;SDS011;4148;47.974;7.824;2024-03-07T06:04:54;7.40;;;5.30;;
8213;SDS011;4148;47.974;7.824;2024-03-07T06:07:22;9.90;;;6.90;;
8213;SDS011;4148;47.974;7.824;2024-03-07T06:09:50;9.60;;;6.70;;
8213;SDS011;4148;47.974;7.824;2024-03-07T06:12:18;13.33;;;8.30;;
8213;SDS011;4148;47.974;7.824;2024-03-07T06:14:53;11.83;;;8.53;;
8213;SDS011;4148;47.974;7.824;2024-03-07T06:17:21;13.50;;;9.20;;
8213;SDS011;4148;47.974;7.824;2024-03-07T06:19:51;17.00;;;9.63;;
8213;SDS011;4148;47.974;7.824;2024-03-07T06:22:19;13.67;;;9.17;;
8213;SDS011;4148;47.974;7.824;2024-03-07T06:24:47;13.93;;;8.80;;
8213;SDS011;4148;47.974;7.824;2024-03-07T06:27:15;14.20;;;8.43;;
8213;SDS011;4148;47.974;7.824;2024-03-07T06:29:53;18.60;;;9.63;;
8213;SDS011;4148;47.974;7.824;2024-03-07T06:32:22;16.30;;;10.17;;
8213;SDS011;4148;47.974;7.824;2024-03-07T06:34:51;12.80;;;9.70;;
8213;SDS011;4148;47.974;7.824;2024-03-07T06:37:19;14.40;;;8.70;;
8213;SDS011;4148;47.974;7.824;2024-03-07T06:39:48;14.47;;;9.07;;
8213;SDS011;4148;47.974;7.824;2024-03-07T06:42:15;16.20;;;10.20;;
8213;SDS011;4148;47.974;7.824;2024-03-07T06:44:44;18.27;;;9.50;;
8213;SDS011;4148;47.974;7.824;2024-03-07T06:47:12;19.43;;;11.07;;
8213;SDS011;4148;47.974;7.824;2024-03-07T06:49:40;18.60;;;10.30;;
8213;SDS011;4148;47.974;7.824;2024-03-07T06:52:09;16.47;;;10.93;;
8213;SDS011;4148;47.974;7.824;2024-03-07T06:54:37;20.37;;;10.80;;
8213;SDS011;4148;47.974;7.824;2024-03-07T06:57:05;16.50;;;10.10;;
8213;SDS011;4148;47.974;7.824;2024-03-07T06:59:34;15.60;;;10.00;;
8213;SDS011;4148;47.974;7.824;2024-03-07T07:02:03;14.90;;;9.73;;
8213;SDS011;4148;47.974;7.824;2024-03-07T07:04:31;14.43;;;9.73;;
8213;SDS011;4148;47.974;7.824;2024-03-07T07:07:09;16.20;;;10.27;;
8213;SDS011;4148;47.974;7.824;2024-03-07T07:09:39;15.37;;;10.17;;
8213;SDS011;4148;47.974;7.824;2024-03-07T07:12:08;18.23;;;9.83;;
8213;SDS011;4148;47.974;7.824;2024-03-07T07:14:36;18.87;;;10.90;;
8213;SDS011;4148;47.974;7.824;2024-03-07T07:17:06;14.90;;;9.80;;
8213;SDS011;4148;47.974;7.824;2024-03-07T07:19:36;16.53;;;9.40;;
8213;SDS011;4148;47.974;7.824;2024-03-07T07:22:04;19.50;;;11.50;;
8213;SDS011;4148;47.974;7.824;2024-03-07T07:24:34;21.43;;;11.23;;
8213;SDS011;4148;47.974;7.824;2024-03-07T07:27:02;17.60;;;10.40;;
8213;SDS011;4148;47.974;7.824;2024-03-07T07:29:29;20.03;;;11.80;;
8213;SDS011;4148;47.974;7.824;2024-03-07T07:31:57;16.63;;;10.60;;
8213;SDS011;4148;47.974;7.824;2024-03-07T07:34:25;23.83;;;13.87;;
8213;SDS011;4148;47.974;7.824;2024-03-07T07:36:54;24.53;;;14.07;;
8213;SDS011;4148;47.974;7.824;2024-03-07T07:39:22;29.87;;;17.17;;
8213;SDS011;4148;47.974;7.824;2024-03-07T07:41:51;28.50;;;15.40;;
8213;SDS011;4148;47.974;7.824;2024-03-07T07:44:19;26.10;;;16.10;;
8213;SDS011;4148;47.974;7.824;2024-03-07T07:46:48;30.87;;;15.70;;
8213;SDS011;4148;47.974;7.824;2024-03-07T07:49:16;29.80;;;15.20;;
8213;SDS011;4148;47.974;7.824;2024-03-07T07:51:45;27.00;;;15.13;;
8213;SDS011;4148;47.974;7.824;2024-03-07T07:54:14;27.77;;;15.10;;
8213;SDS011;4148;47.974;7.824;2024-03-07T07:56:42;27.63;;;15.20;;
8213;SDS011;4148;47.974;7.824;2024-03-07T07:59:11;23.33;;;14.33;;
8213;SDS011;4148;47.974;7.824;2024-03-07T08:01:41;28.53;;;15.60;;
8213;SDS011;4148;47.974;7.824;2024-03-07T08:04:09;30.47;;;15.43;;
8213;SDS011;4148;47.974;7.824;2024-03-07T08:06:37;24.43;;;14.90;;
8213;SDS011;4148;47.974;7.824;2024-03-07T08:09:05;27.50;;;14.30;;
8213;SDS011;4148;47.974;7.824;2024-03-07T08:11:37;27.00;;;14.47;;
8213;SDS011;4148;47.974;7.824;2024-03-07T08:14:05;29.00;;;16.07;;
8213;SDS011;4148;47.974;7.824;2024-03-07T08:16:34;25.93;;;14.03;;
8213;SDS011;4148;47.974;7.824;2024-03-07T08:19:02;28.40;;;16.13;;
8213;SDS011;4148;47.974;7.824;2024-03-07T08:21:32;26.77;;;14.30;;
8213;SDS011;4148;47.974;7.824;2024-03-07T08:24:00;31.23;;;15.90;;
8213;SDS011;4148;47.974;7.824;2024-03-07T08:26:29;29.37;;;16.87;;
8213;SDS011;4148;47.974;7.824;2024-03-07T08:28:59;31.53;;;17.60;;
8213;SDS011;4148;47.974;7.824;2024-03-07T08:31:27;35.77;;;18.70;;
8213;SDS011;4148;47.974;7.824;2024-03-07T08:33:56;34.40;;;19.30;;
8213;SDS011;4148;47.974;7.824;2024-03-07T08:36:25;32.30;;;17.53;;
8213;SDS011;4148;47.974;7.824;2024-03-07T08:38:53;31.70;;;17.17;;
8213;SDS011;4148;47.974;7.824;2024-03-07T08:41:21;27.13;;;16.20;;
8213;SDS011;4148;47.974;7.824;2024-03-07T08:43:49;28.90;;;17.00;;
8213;SDS011;4148;47.974;7.824;2024-03-07T08:46:17;26.90;;;16.17;;
8213;SDS011;4148;47.974;7.824;2024-03-07T08:48:45;28.50;;;17.00;;
8213;SDS011;4148;47.974;7.824;2024-03-07T08:51:16;32.00;;;18.20;;
8213;SDS011;4148;47.974;7.824;2024-03-07T08:53:44;32.57;;;19.47;;
8213;SDS011;4148;47.974;7.824;2024-03-07T08:56:12;32.83;;;21.23;;
8213;SDS011;4148;47.974;7.824;2024-03-07T08:58:40;35.80;;;21.47;;
8213;SDS011;4148;47.974;7.824;2024-03-07T09:01:09;37.90;;;20.30;;
8213;SDS011;4148;47.974;7.824;2024-03-07T09:03:37;30.73;;;19.10;;
8213;SDS011;4148;47.974;7.824;2024-03-07T09:06:05;33.97;;;20.73;;
8213;SDS011;4148;47.974;7.824;2024-03-07T09:08:35;36.23;;;20.50;;
8213;SDS011;4148;47.974;7.824;2024-03-07T09:11:03;34.53;;;21.10;;
8213;SDS011;4148;47.974;7.824;2024-03-07T09:13:31;40.90;;;21.60;;
8213;SDS011;4148;47.974;7.824;2024-03-07T09:15:59;46.50;;;25.30;;
8213;SDS011;4148;47.974;7.824;2024-03-07T09:18:31;43.80;;;24.30;;
8213;SDS011;4148;47.974;7.824;2024-03-07T09:20:59;41.27;;;24.17;;
8213;SDS011;4148;47.974;7.824;2024-03-07T09:23:27;43.60;;;24.73;;
8213;SDS011;4148;47.974;7.824;2024-03-07T09:25:56;42.33;;;24.70;;
8213;SDS011;4148;47.974;7.824;2024-03-07T09:28:25;43.47;;;25.40;;
8213;SDS011;4148;47.974;7.824;2024-03-07T09:30:53;42.37;;;23.40;;
8213;SDS011;4148;47.974;7.824;2024-03-07T09:33:21;38.83;;;22.70;;
8213;SDS011;4148;47.974;7.824;2024-03-07T09:35:54;39.13;;;23.60;;
8213;SDS011;4148;47.974;7.824;2024-03-07T09:38:24;46.23;;;25.67;;
8213;SDS011;4148;47.974;7.824;2024-03-07T09:40:54;41.57;;;24.47;;
8213;SDS011;4148;47.974;7.824;2024-03-07T09:43:23;38.23;;;23.10;;
8213;SDS011;4148;47.974;7.824;2024-03-07T09:45:53;38.47;;;21.70;;
8213;SDS011;4148;47.974;7.824;2024-03-07T09:48:22;38.47;;;22.07;;
8213;SDS011;4148;47.974;7.824;2024-03-07T09:50:54;39.50;;;22.80;;
8213;SDS011;4148;47.974;7.824;2024-03-07T09:53:25;40.27;;;24.97;;
8213;SDS011;4148;47.974;7.824;2024-03-07T09:55:53;34.97;;;21.37;;
8213;SDS011;4148;47.974;7.824;2024-03-07T09:58:23;37.73;;;22.70;;
8213;SDS011;4148;47.974;7.824;2024-03-07T10:00:56;36.70;;;22.47;;
8213;SDS011;4148;47.974;7.824;2024-03-07T10:03:26;34.43;;;21.43;;
8213;SDS011;4148;47.974;7.824;2024-03-07T10:05:57;36.30;;;21.70;;
8213;SDS011;4148;47.974;7.824;2024-03-07T10:08:27;38.90;;;23.27;;
8213;SDS011;4148;47.974;7.824;2024-03-07T10:10:57;37.87;;;22.53;;
8213;SDS011;4148;47.974;7.824;2024-03-07T10:13:28;40.43;;;24.40;;
8213;SDS011;4148;47.974;7.824;2024-03-07T10:15:56;40.07;;;22.87;;
8213;SDS011;4148;47.974;7.824;2024-03-07T10:18:26;42.07;;;24.13;;
8213;SDS011;4148;47.974;7.824;2024-03-07T10:20:55;41.20;;;24.13;;
8213;SDS011;4148;47.974;7.824;2024-03-07T10:23:23;43.80;;;24.77;;
8213;SDS011;4148;47.974;7.824;2024-03-07T10:25:51;40.87;;;25.00;;
8213;SDS011;4148;47.974;7.824;2024-03-07T10:28:20;46.50;;;25.00;;
8213;SDS011;4148;47.974;7.824;2024-03-07T10:30:50;42.30;;;24.60;;
8213;SDS011;4148;47.974;7.824;2024-03-07T10:33:18;49.67;;;27.20;;
8213;SDS011;4148;47.974;7.824;2024-03-07T10:35:46;44.70;;;26.17;;
8213;SDS011;4148;47.974;7.824;2024-03-07T10:38:16;43.33;;;27.07;;
8213;SDS011;4148;47.974;7.824;2024-03-07T10:40:46;53.40;;;26.83;;
8213;SDS011;4148;47.974;7.824;2024-03-07T10:43:16;46.47;;;28.43;;
8213;SDS011;4148;47.974;7.824;2024-03-07T10:45:47;43.00;;;26.50;;
8213;SDS011;4148;47.974;7.824;2024-03-07T10:48:19;44.53;;;26.13;;
8213;SDS011;4148;47.974;7.824;2024-03-07T10:50:52;44.10;;;26.57;;
8213;SDS011;4148;47.974;7.824;2024-03-07T10:53:29;42.80;;;24.80;;
8213;SDS011;4148;47.974;7.824;2024-03-07T10:56:10;43.50;;;24.70;;
8213;SDS011;4148;47.974;7.824;2024-03-07T10:58:54;44.03;;;26.33;;
8213;SDS011;4148;47.974;7.824;2024-03-07T11:01:26;45.70;;;25.87;;
8213;SDS011;4148;47.974;7.824;2024-03-07T11:04:01;37.60;;;24.60;;
8213;SDS011;4148;47.974;7.824;2024-03-07T11:06:32;38.37;;;24.27;;
8213;SDS011;4148;47.974;7.824;2024-03-07T11:09:01;41.40;;;25.43;;
8213;SDS011;4148;47.974;7.824;2024-03-07T11:11:37;38.40;;;24.67;;
8213;SDS011;4148;47.974;7.824;2024-03-07T11:14:07;42.27;;;25.27;;
8213;SDS011;4148;47.974;7.824;2024-03-07T11:16:37;42.10;;;24.53;;
8213;SDS011;4148;47.974;7.824;2024-03-07T11:22:05;37.47;;;22.37;;
8213;SDS011;4148;47.974;7.824;2024-03-07T11:24:42;36.47;;;22.90;;
8213;SDS011;4148;47.974;7.824;2024-03-07T11:27:11;39.23;;;24.27;;
8213;SDS011;4148;47.974;7.824;2024-03-07T11:29:49;37.60;;;23.53;;
8213;SDS011;4148;47.974;7.824;2024-03-07T11:32:21;34.30;;;22.80;;
8213;SDS011;4148;47.974;7.824;2024-03-07T11:34:53;35.90;;;22.53;;
8213;SDS011;4148;47.974;7.824;2024-03-07T11:37:37;38.03;;;23.60;;
8213;SDS011;4148;47.974;7.824;2024-03-07T11:40:08;39.63;;;24.37;;
8213;SDS011;4148;47.974;7.824;2024-03-07T11:42:45;34.97;;;23.07;;
8213;SDS011;4148;47.974;7.824;2024-03-07T11:45:15;36.17;;;22.13;;
8213;SDS011;4148;47.974;7.824;2024-03-07T11:47:54;32.90;;;20.30;;
8213;SDS011;4148;47.974;7.824;2024-03-07T11:50:27;33.27;;;21.60;;
8213;SDS011;4148;47.974;7.824;2024-03-07T11:53:01;33.60;;;21.80;;
8213;SDS011;4148;47.974;7.824;2024-03-07T11:55:32;32.70;;;20.67;;
8213;SDS011;4148;47.974;7.824;2024-03-07T11:58:09;33.07;;;22.20;;
8213;SDS011;4148;47.974;7.824;2024-03-07T12:00:40;34.17;;;21.57;;
8213;SDS011;4148;47.974;7.824;2024-03-07T12:03:11;31.07;;;20.20;;
8213;SDS011;4148;47.974;7.824;2024-03-07T12:05:42;35.40;;;20.40;;
8213;SDS011;4148;47.974;7.824;2024-03-07T12:08:10;34.60;;;22.17;;
8213;SDS011;4148;47.974;7.824;2024-03-07T12:10:39;35.17;;;21.60;;
8213;SDS011;4148;47.974;7.824;2024-03-07T12:13:14;31.30;;;20.60;;
8213;SDS011;4148;47.974;7.824;2024-03-07T12:15:42;34.37;;;22.00;;
8213;SDS011;4148;47.974;7.824;2024-03-07T12:18:11;34.43;;;22.23;;
8213;SDS011;4148;47.974;7.824;2024-03-07T12:20:45;32.77;;;22.20;;
8213;SDS011;4148;47.974;7.824;2024-03-07T12:23:17;31.83;;;21.20;;
8213;SDS011;4148;47.974;7.824;2024-03-07T12:25:46;31.47;;;20.50;;
8213;SDS011;4148;47.974;7.824;2024-03-07T12:28:14;28.93;;;20.20;;
8213;SDS011;4148;47.974;7.824;2024-03-07T12:30:48;33.97;;;21.40;;
8213;SDS011;4148;47.974;7.824;2024-03-07T12:33:17;36.10;;;22.10;;
8213;SDS011;4148;47.974;7.824;2024-03-07T12:35:47;33.03;;;22.80;;
8213;SDS011;4148;47.974;7.824;2024-03-07T12:38:18;36.43;;;21.57;;
8213;SDS011;4148;47.974;7.824;2024-03-07T12:41:01;34.87;;;21.07;;
8213;SDS011;4148;47.974;7.824;2024-03-07T12:43:32;32.20;;;22.47;;
8213;SDS011;4148;47.974;7.824;2024-03-07T12:46:00;34.57;;;22.67;;
8213;SDS011;4148;47.974;7.824;2024-03-07T12:48:31;34.50;;;23.30;;
8213;SDS011;4148;47.974;7.824;2024-03-07T12:51:00;38.47;;;24.50;;
8213;SDS011;4148;47.974;7.824;2024-03-07T12:53:29;36.00;;;23.93;;
8213;SDS011;4148;47.974;7.824;2024-03-07T12:55:57;37.83;;;23.67;;
8213;SDS011;4148;47.974;7.824;2024-03-07T12:58:25;37.60;;;23.40;;
8213;SDS011;4148;47.974;7.824;2024-03-07T13:00:55;37.30;;;24.27;;
8213;SDS011;4148;47.974;7.824;2024-03-07T13:03:23;42.13;;;25.90;;
8213;SDS011;4148;47.974;7.824;2024-03-07T13:05:56;42.93;;;24.47;;
8213;SDS011;4148;47.974;7.824;2024-03-07T13:08:28;33.97;;;23.17;;
8213;SDS011;4148;47.974;7.824;2024-03-07T13:10:57;37.77;;;24.43;;
8213;SDS011;4148;47.974;7.824;2024-03-07T13:13:27;37.67;;;24.57;;
8213;SDS011;4148;47.974;7.824;2024-03-07T13:15:57;36.47;;;24.27;;
8213;SDS011;4148;47.974;7.824;2024-03-07T13:18:25;44.00;;;25.80;;
8213;SDS011;4148;47.974;7.824;2024-03-07T13:20:53;40.40;;;25.73;;
8213;SDS011;4148;47.974;7.824;2024-03-07T13:23:22;40.83;;;25.63;;
8213;SDS011;4148;47.974;7.824;2024-03-07T13:25:55;37.43;;;25.10;;
8213;SDS011;4148;47.974;7.824;2024-03-07T13:28:23;43.20;;;25.67;;
8213;SDS011;4148;47.974;7.824;2024-03-07T13:30:55;39.07;;;25.77;;
8213;SDS011;4148;47.974;7.824;2024-03-07T13:33:23;38.67;;;25.40;;
8213;SDS011;4148;47.974;7.824;2024-03-07T13:35:52;37.33;;;24.50;;
8213;SDS011;4148;47.974;7.824;2024-03-07T13:38:20;38.93;;;25.57;;
8213;SDS011;4148;47.974;7.824;2024-03-07T13:40:48;36.20;;;23.37;;
8213;SDS011;4148;47.974;7.824;2024-03-07T13:43:18;38.50;;;24.43;;
8213;SDS011;4148;47.974;7.824;2024-03-07T13:45:46;37.80;;;24.30;;
8213;SDS011;4148;47.974;7.824;2024-03-07T13:48:14;38.00;;;24.40;;
8213;SDS011;4148;47.974;7.824;2024-03-07T13:50:44;40.53;;;24.03;;
8213;SDS011;4148;47.974;7.824;2024-03-07T13:53:24;37.03;;;23.10;;
8213;SDS011;4148;47.974;7.824;2024-03-07T13:56:32;37.93;;;22.37;;
8213;SDS011;4148;47.974;7.824;2024-03-07T13:59:23;35.90;;;23.70;;
8213;SDS011;4148;47.974;7.824;2024-03-07T14:02:16;39.03;;;24.00;;
8213;SDS011;4148;47.974;7.824;2024-03-07T14:05:10;36.53;;;23.00;;
8213;SDS011;4148;47.974;7.824;2024-03-07T14:08:00;40.70;;;24.60;;
8213;SDS011;4148;47.974;7.824;2024-03-07T14:11:09;36.80;;;22.83;;
8213;SDS011;4148;47.974;7.824;2024-03-07T14:14:15;35.00;;;22.43;;
8213;SDS011;4148;47.974;7.824;2024-03-07T14:17:06;35.37;;;22.70;;
8213;SDS011;4148;47.974;7.824;2024-03-07T14:20:13;35.80;;;22.73;;
8213;SDS011;4148;47.974;7.824;2024-03-07T14:23:11;36.40;;;22.50;;
8213;SDS011;4148;47.974;7.824;2024-03-07T14:25:56;39.17;;;24.00;;
8213;SDS011;4148;47.974;7.824;2024-03-07T14:28:44;37.43;;;22.20;;
8213;SDS011;4148;47.974;7.824;2024-03-07T14:31:22;38.27;;;24.13;;
8213;SDS011;4148;47.974;7.824;2024-03-07T14:33:54;34.40;;;22.50;;
8213;SDS011;4148;47.974;7.824;2024-03-07T14:36:35;36.63;;;23.50;;
8213;SDS011;4148;47.974;7.824;2024-03-07T14:39:07;32.93;;;22.33;;
8213;SDS011;4148;47.974;7.824;2024-03-07T14:41:42;36.17;;;23.10;;
8213;SDS011;4148;47.974;7.824;2024-03-07T14:44:15;38.03;;;22.17;;
8213;SDS011;4148;47.974;7.824;2024-03-07T14:46:47;36.03;;;22.87;;
8213;SDS011;4148;47.974;7.824;2024-03-07T14:49:20;33.30;;;21.60;;
8213;SDS011;4148;47.974;7.824;2024-03-07T14:51:49;32.83;;;20.00;;
8213;SDS011;4148;47.974;7.824;2024-03-07T14:54:26;37.43;;;22.57;;
8213;SDS011;4148;47.974;7.824;2024-03-07T14:56:55;34.70;;;20.80;;
8213;SDS011;4148;47.974;7.824;2024-03-07T14:59:23;29.00;;;19.60;;
8213;SDS011;4148;47.974;7.824;2024-03-07T15:01:53;29.50;;;20.30;;
8213;SDS011;4148;47.974;7.824;2024-03-07T15:04:22;34.90;;;21.37;;
8213;SDS011;4148;47.974;7.824;2024-03-07T15:06:50;33.30;;;22.03;;
8213;SDS011;4148;47.974;7.824;2024-03-07T15:09:23;37.47;;;21.40;;
8213;SDS011;4148;47.974;7.824;2024-03-07T15:11:51;33.47;;;21.70;;
8213;SDS011;4148;47.974;7.824;2024-03-07T15:14:19;33.30;;;22.10;;
8213;SDS011;4148;47.974;7.824;2024-03-07T15:17:04;38.93;;;21.97;;
8213;SDS011;4148;47.974;7.824;2024-03-07T15:19:33;31.67;;;20.00;;
8213;SDS011;4148;47.974;7.824;2024-03-07T15:22:01;29.37;;;19.70;;